Temp: 17.8°C   Baro: 1015.1mb
  Wind: 4.9mph   Dir: W (281°)
  Rain: 0.6mm (0.0mm/hr)
  Solar: 185W/m2  Hum: 56%
 
Bath Spa Weather Station Historical Data
Daily Summary for August 06, 2020 Units:  Both    English   Metric
Daily Weekly Monthly Yearly Custom
  High: Low: Average:
Temperature: 74.3 °F /  23.5 °C 63.3 °F /  17.4 °C 67.4 °F /  19.7 °C
Dew Point: 66.1 °F /  18.9 °C 59.4 °F /  15.2 °C 62.6 °F /  17 °C
Humidity: 92% 71% 85%
Wind Speed: 9mph /  14.5km/h - 2.5mph /  4km/h
Wind Gust: 15mph /  24.1km/h - -
Wind- - SSW
Pressure: 30.06 in /  1017.8 hPa 29.92 in /  1013.1 hPa -
Precipitation: 0.01 in /  0.25 mm    
Historical Graphs
 
 
Tabular Data for August 06, 2020
Time Temperature Dew Point Pressure Wind Wind Speed Wind Gust Humidity Rainfall Rate (Hourly) solar
00:04 63.9 °F /  17.7 °C 60.6 °F /  15.9 °C 29.92in /  1013.1hPa West 0.8mph /  1.3km/h 3mph /  4.8km/h 89% 0.00in /  0mm 0 W/m2
00:09 63.9 °F /  17.7 °C 60.6 °F /  15.9 °C 29.92in /  1013.1hPa West 0.8mph /  1.3km/h 3mph /  4.8km/h 89% 0.00in /  0mm 0 W/m2
00:14 63.9 °F /  17.7 °C 60.6 °F /  15.9 °C 29.93in /  1013.4hPa West 1.3mph /  2.1km/h 3mph /  4.8km/h 89% 0.00in /  0mm 0 W/m2
00:19 63.9 °F /  17.7 °C 60.6 °F /  15.9 °C 29.93in /  1013.4hPa West 2.1mph /  3.4km/h 4mph /  6.4km/h 89% 0.00in /  0mm 0 W/m2
00:24 63.9 °F /  17.7 °C 60.6 °F /  15.9 °C 29.93in /  1013.4hPa West 0.2mph /  0.3km/h 3mph /  4.8km/h 89% 0.00in /  0mm 0 W/m2
00:29 63.9 °F /  17.7 °C 60.6 °F /  15.9 °C 29.93in /  1013.4hPa West 0.2mph /  0.3km/h 1mph /  1.6km/h 89% 0.00in /  0mm 0 W/m2
00:34 63.9 °F /  17.7 °C 60.6 °F /  15.9 °C 29.93in /  1013.4hPa West 0.2mph /  0.3km/h 2mph /  3.2km/h 89% 0.00in /  0mm 0 W/m2
00:39 63.9 °F /  17.7 °C 60.7 °F /  15.9 °C 29.93in /  1013.4hPa West 1.2mph /  1.9km/h 3mph /  4.8km/h 89% 0.00in /  0mm 0 W/m2
00:44 64 °F /  17.8 °C 60.8 °F /  16 °C 29.93in /  1013.4hPa West 0.8mph /  1.3km/h 3mph /  4.8km/h 89% 0.00in /  0mm 0 W/m2
00:49 64 °F /  17.8 °C 60.8 °F /  16 °C 29.93in /  1013.4hPa West 0.6mph /  1km/h 3mph /  4.8km/h 89% 0.00in /  0mm 0 W/m2
00:54 64 °F /  17.8 °C 60.8 °F /  16 °C 29.93in /  1013.4hPa Calm     89% 0.00in /  0mm 0 W/m2
00:59 64 °F /  17.8 °C 60.8 °F /  16 °C 29.93in /  1013.4hPa Calm     89% 0.00in /  0mm 0 W/m2
01:04 64 °F /  17.8 °C 60.8 °F /  16 °C 29.93in /  1013.4hPa Calm     89% 0.00in /  0mm 0 W/m2
01:09 64 °F /  17.8 °C 60.8 °F /  16 °C 29.93in /  1013.4hPa West 0.4mph /  0.6km/h 3mph /  4.8km/h 89% 0.00in /  0mm 0 W/m2
01:14 64 °F /  17.8 °C 60.8 °F /  16 °C 29.93in /  1013.4hPa Calm   3mph /  4.8km/h 89% 0.00in /  0mm 0 W/m2
01:19 64 °F /  17.8 °C 60.8 °F /  16 °C 29.93in /  1013.4hPa Calm   1mph /  1.6km/h 89.2% 0.00in /  0mm 0 W/m2
01:24 64.1 °F /  17.8 °C 60.9 °F /  16.1 °C 29.93in /  1013.4hPa Calm     89% 0.00in /  0mm 0 W/m2
01:28 64.1 °F /  17.8 °C 60.8 °F /  16 °C 29.93in /  1013.4hPa West 0.9mph /  1.4km/h 3mph /  4.8km/h 89% 0.00in /  0mm 0 W/m2
01:34 64.1 °F /  17.8 °C 60.9 °F /  16.1 °C 29.94in /  1013.8hPa West 1.6mph /  2.6km/h 4mph /  6.4km/h 89% 0.00in /  0mm 0 W/m2
01:39 64.1 °F /  17.8 °C 61 °F /  16.1 °C 29.94in /  1013.8hPa West 1mph /  1.6km/h 3mph /  4.8km/h 89.6% 0.00in /  0mm 0 W/m2
01:44 64.2 °F /  17.9 °C 61.1 °F /  16.2 °C 29.94in /  1013.8hPa West 2.1mph /  3.4km/h 4mph /  6.4km/h 89.8% 0.00in /  0mm 0 W/m2
01:49 64.1 °F /  17.8 °C 61.1 °F /  16.2 °C 29.94in /  1013.8hPa West 0.6mph /  1km/h 4mph /  6.4km/h 89.8% 0.00in /  0mm 0 W/m2
01:54 64.2 °F /  17.9 °C 61.1 °F /  16.2 °C 29.93in /  1013.4hPa West 0.2mph /  0.3km/h 2mph /  3.2km/h 89.8% 0.00in /  0mm 0 W/m2
01:59 64 °F /  17.8 °C 61 °F /  16.1 °C 29.93in /  1013.4hPa West 0.5mph /  0.8km/h 4mph /  6.4km/h 89.6% 0.00in /  0mm 0 W/m2
02:04 64 °F /  17.8 °C 60.8 °F /  16 °C 29.93in /  1013.4hPa West 1.2mph /  1.9km/h 3mph /  4.8km/h 89% 0.00in /  0mm 0 W/m2
02:09 64 °F /  17.8 °C 60.8 °F /  16 °C 29.93in /  1013.4hPa West 1mph /  1.6km/h 4mph /  6.4km/h 89% 0.00in /  0mm 0 W/m2
02:14 64 °F /  17.8 °C 60.8 °F /  16 °C 29.94in /  1013.8hPa West 1.6mph /  2.6km/h 4mph /  6.4km/h 89% 0.00in /  0mm 0 W/m2
02:19 64 °F /  17.8 °C 60.8 °F /  16 °C 29.94in /  1013.8hPa West 3.3mph /  5.3km/h 5mph /  8km/h 89% 0.00in /  0mm 0 W/m2
02:24 64 °F /  17.8 °C 60.8 °F /  16 °C 29.94in /  1013.8hPa West 2.7mph /  4.3km/h 5mph /  8km/h 89% 0.00in /  0mm 0 W/m2
02:29 64 °F /  17.8 °C 60.8 °F /  16 °C 29.94in /  1013.8hPa West 2.4mph /  3.9km/h 4mph /  6.4km/h 89% 0.00in /  0mm 0 W/m2
02:34 64 °F /  17.8 °C 60.8 °F /  16 °C 29.94in /  1013.8hPa West 1.7mph /  2.7km/h 4mph /  6.4km/h 89% 0.00in /  0mm 0 W/m2
02:39 64 °F /  17.8 °C 60.8 °F /  16 °C 29.94in /  1013.8hPa West 0.8mph /  1.3km/h 2mph /  3.2km/h 89% 0.00in /  0mm 0 W/m2
02:44 64 °F /  17.8 °C 60.8 °F /  16 °C 29.94in /  1013.8hPa West 2.2mph /  3.5km/h 5mph /  8km/h 89% 0.00in /  0mm 0 W/m2
02:49 64 °F /  17.8 °C 60.8 °F /  16 °C 29.94in /  1013.8hPa West 1.3mph /  2.1km/h 3mph /  4.8km/h 89% 0.00in /  0mm 0 W/m2
02:54 64 °F /  17.8 °C 60.8 °F /  16 °C 29.94in /  1013.8hPa West 1.1mph /  1.8km/h 3mph /  4.8km/h 89% 0.00in /  0mm 0 W/m2
02:59 64 °F /  17.8 °C 61 °F /  16.1 °C 29.94in /  1013.8hPa West 0.2mph /  0.3km/h 3mph /  4.8km/h 89.8% 0.00in /  0mm 0 W/m2
03:04 64 °F /  17.8 °C 61 °F /  16.1 °C 29.94in /  1013.8hPa West 2.4mph /  3.9km/h 5mph /  8km/h 89.8% 0.00in /  0mm 0 W/m2
03:09 64 °F /  17.8 °C 61 °F /  16.1 °C 29.94in /  1013.8hPa West 2.1mph /  3.4km/h 5mph /  8km/h 89.8% 0.00in /  0mm 0 W/m2
03:14 64 °F /  17.8 °C 60.9 °F /  16.1 °C 29.95in /  1014.1hPa West 1.6mph /  2.6km/h 4mph /  6.4km/h 89.8% 0.00in /  0mm 0 W/m2
03:19 64 °F /  17.8 °C 61 °F /  16.1 °C 29.94in /  1013.8hPa West 0.8mph /  1.3km/h 3mph /  4.8km/h 90% 0.00in /  0mm 0 W/m2
03:24 64 °F /  17.8 °C 61 °F /  16.1 °C 29.94in /  1013.8hPa West 1.7mph /  2.7km/h 4mph /  6.4km/h 90% 0.00in /  0mm 0 W/m2
03:29 64 °F /  17.8 °C 60.9 °F /  16.1 °C 29.94in /  1013.8hPa West 1.6mph /  2.6km/h 4mph /  6.4km/h 90% 0.00in /  0mm 0 W/m2
03:34 64 °F /  17.8 °C 61 °F /  16.1 °C 29.95in /  1014.1hPa West 0.2mph /  0.3km/h 3mph /  4.8km/h 90% 0.00in /  0mm 0 W/m2
03:39 64 °F /  17.8 °C 61 °F /  16.1 °C 29.95in /  1014.1hPa Calm   2mph /  3.2km/h 90% 0.00in /  0mm 0 W/m2
03:44 63.9 °F /  17.7 °C 60.8 °F /  16 °C 29.95in /  1014.1hPa West 1.2mph /  1.9km/h 4mph /  6.4km/h 90% 0.00in /  0mm 0 W/m2
03:49 63.9 °F /  17.7 °C 60.8 °F /  16 °C 29.95in /  1014.1hPa West 1.7mph /  2.7km/h 4mph /  6.4km/h 90% 0.00in /  0mm 0 W/m2
03:54 63.9 °F /  17.7 °C 60.8 °F /  16 °C 29.95in /  1014.1hPa SW 3.3mph /  5.3km/h 6mph /  9.7km/h 90% 0.00in /  0mm 0 W/m2
03:59 63.9 °F /  17.7 °C 60.8 °F /  16 °C 29.95in /  1014.1hPa SW 1.7mph /  2.7km/h 5mph /  8km/h 90% 0.00in /  0mm 0 W/m2
04:04 63.9 °F /  17.7 °C 60.8 °F /  16 °C 29.95in /  1014.1hPa SW 1.3mph /  2.1km/h 4mph /  6.4km/h 90% 0.00in /  0mm 0 W/m2
04:09 63.9 °F /  17.7 °C 60.8 °F /  16 °C 29.95in /  1014.1hPa SW 2.3mph /  3.7km/h 6mph /  9.7km/h 90% 0.00in /  0mm 0 W/m2
04:14 63.8 °F /  17.7 °C 60.7 °F /  15.9 °C 29.95in /  1014.1hPa SW 0.4mph /  0.6km/h 4mph /  6.4km/h 89.8% 0.00in /  0mm 0 W/m2
04:19 63.8 °F /  17.7 °C 60.7 °F /  15.9 °C 29.95in /  1014.1hPa SW 0.8mph /  1.3km/h 3mph /  4.8km/h 90% 0.00in /  0mm 0 W/m2
04:24 63.7 °F /  17.6 °C 60.6 °F /  15.9 °C 29.95in /  1014.1hPa SW 1.6mph /  2.6km/h 3mph /  4.8km/h 89.8% 0.00in /  0mm 0 W/m2
04:29 63.7 °F /  17.6 °C 60.5 °F /  15.8 °C 29.95in /  1014.1hPa SW 1mph /  1.6km/h 3mph /  4.8km/h 89.5% 0.00in /  0mm 0 W/m2
04:34 63.7 °F /  17.6 °C 60.4 °F /  15.8 °C 29.95in /  1014.1hPa SW 0.5mph /  0.8km/h 3mph /  4.8km/h 89% 0.00in /  0mm 0 W/m2
04:39 63.7 °F /  17.6 °C 60.4 °F /  15.8 °C 29.95in /  1014.1hPa SW 0.4mph /  0.6km/h 3mph /  4.8km/h 89% 0.00in /  0mm 0 W/m2
04:44 63.7 °F /  17.6 °C 60.4 °F /  15.8 °C 29.95in /  1014.1hPa SW 0.6mph /  1km/h 3mph /  4.8km/h 89% 0.00in /  0mm 0 W/m2
04:49 63.7 °F /  17.6 °C 60.4 °F /  15.8 °C 29.95in /  1014.1hPa SW 1.4mph /  2.3km/h 3mph /  4.8km/h 89% 0.00in /  0mm 0 W/m2
04:54 63.6 °F /  17.6 °C 60.3 °F /  15.7 °C 29.95in /  1014.1hPa Calm   2mph /  3.2km/h 89% 0.00in /  0mm 0 W/m2
04:59 63.6 °F /  17.6 °C 60.3 °F /  15.7 °C 29.95in /  1014.1hPa Calm     89% 0.00in /  0mm 0 W/m2
05:04 63.5 °F /  17.5 °C 60.3 °F /  15.7 °C 29.96in /  1014.4hPa SW 0.6mph /  1km/h 2mph /  3.2km/h 89% 0.00in /  0mm 0 W/m2
05:09 63.5 °F /  17.5 °C 60.3 °F /  15.7 °C 29.96in /  1014.4hPa Calm     89% 0.00in /  0mm 0 W/m2
05:14 63.5 °F /  17.5 °C 60.3 °F /  15.7 °C 29.96in /  1014.4hPa SW 1mph /  1.6km/h 3mph /  4.8km/h 89% 0.00in /  0mm 0 W/m2
05:19 63.4 °F /  17.4 °C 60.2 °F /  15.7 °C 29.96in /  1014.4hPa SW 0.2mph /  0.3km/h 3mph /  4.8km/h 89% 0.00in /  0mm 0 W/m2
05:24 63.3 °F /  17.4 °C 60.1 °F /  15.6 °C 29.96in /  1014.4hPa Calm     89% 0.00in /  0mm 0 W/m2
05:29 63.3 °F /  17.4 °C 60.1 °F /  15.6 °C 29.96in /  1014.4hPa Calm     89% 0.00in /  0mm 0 W/m2
05:34 63.3 °F /  17.4 °C 60.1 °F /  15.6 °C 29.96in /  1014.4hPa Calm   3mph /  4.8km/h 89% 0.00in /  0mm 0 W/m2
05:39 63.3 °F /  17.4 °C 60.1 °F /  15.6 °C 29.96in /  1014.4hPa SW 0.2mph /  0.3km/h 2mph /  3.2km/h 89% 0.00in /  0mm 0 W/m2
05:44 63.3 °F /  17.4 °C 60.1 °F /  15.6 °C 29.96in /  1014.4hPa Calm   1mph /  1.6km/h 89% 0.00in /  0mm 0 W/m2
05:49 63.3 °F /  17.4 °C 60.1 °F /  15.6 °C 29.96in /  1014.4hPa SW 0.2mph /  0.3km/h 4mph /  6.4km/h 89% 0.00in /  0mm 0 W/m2
05:54 63.3 °F /  17.4 °C 60.1 °F /  15.6 °C 29.96in /  1014.4hPa SW 1.7mph /  2.7km/h 5mph /  8km/h 89% 0.00in /  0mm 0 W/m2
05:59 63.3 °F /  17.4 °C 60.1 °F /  15.6 °C 29.96in /  1014.4hPa SW 0.9mph /  1.4km/h 5mph /  8km/h 89% 0.00in /  0mm 5 W/m2
06:04 63.3 °F /  17.4 °C 60.1 °F /  15.6 °C 29.97in /  1014.8hPa SW 1.3mph /  2.1km/h 5mph /  8km/h 89% 0.00in /  0mm 5 W/m2
06:09 63.3 °F /  17.4 °C 60.1 °F /  15.6 °C 29.97in /  1014.8hPa SSW 1.6mph /  2.6km/h 4mph /  6.4km/h 89% 0.00in /  0mm 12 W/m2
06:14 63.3 °F /  17.4 °C 60.1 °F /  15.6 °C 29.97in /  1014.8hPa SSW 0.5mph /  0.8km/h 2mph /  3.2km/h 89% 0.00in /  0mm 12 W/m2
06:19 63.3 °F /  17.4 °C 60.1 °F /  15.6 °C 29.97in /  1014.8hPa Calm   2mph /  3.2km/h 89% 0.00in /  0mm 14 W/m2
06:24 63.3 °F /  17.4 °C 60.1 °F /  15.6 °C 29.97in /  1014.8hPa SSW 0.4mph /  0.6km/h 3mph /  4.8km/h 89% 0.00in /  0mm 16 W/m2
06:28 63.3 °F /  17.4 °C 60.1 °F /  15.6 °C 29.97in /  1014.8hPa SSW 0.2mph /  0.3km/h 3mph /  4.8km/h 89% 0.00in /  0mm 18 W/m2
06:34 63.3 °F /  17.4 °C 60.1 °F /  15.6 °C 29.97in /  1014.8hPa SSW 0.2mph /  0.3km/h 2mph /  3.2km/h 89% 0.00in /  0mm 19 W/m2
06:39 63.3 °F /  17.4 °C 60.1 °F /  15.6 °C 29.97in /  1014.8hPa SSW 0.6mph /  1km/h 2mph /  3.2km/h 89% 0.00in /  0mm 21 W/m2
06:44 63.3 °F /  17.4 °C 60.1 °F /  15.6 °C 29.97in /  1014.8hPa South 0.4mph /  0.6km/h 3mph /  4.8km/h 89% 0.00in /  0mm 21 W/m2
06:49 63.3 °F /  17.4 °C 60.1 °F /  15.6 °C 29.97in /  1014.8hPa South 1mph /  1.6km/h 3mph /  4.8km/h 89% 0.00in /  0mm 21 W/m2
06:54 63.3 °F /  17.4 °C 60.1 °F /  15.6 °C 29.97in /  1014.8hPa SSW 2.2mph /  3.5km/h 4mph /  6.4km/h 89% 0.00in /  0mm 26 W/m2
06:59 63.3 °F /  17.4 °C 60.1 °F /  15.6 °C 29.97in /  1014.8hPa SSW 1.8mph /  2.9km/h 5mph /  8km/h 89% 0.00in /  0mm 32 W/m2
07:04 63.3 °F /  17.4 °C 60.1 °F /  15.6 °C 29.98in /  1015.1hPa Calm   4mph /  6.4km/h 89% 0.00in /  0mm 32 W/m2
07:09 63.3 °F /  17.4 °C 60.1 °F /  15.6 °C 29.98in /  1015.1hPa SSW 0.8mph /  1.3km/h 4mph /  6.4km/h 89% 0.00in /  0mm 32 W/m2
07:14 63.3 °F /  17.4 °C 60.1 °F /  15.6 °C 29.98in /  1015.1hPa SSW 1.2mph /  1.9km/h 4mph /  6.4km/h 89% 0.00in /  0mm 44 W/m2
07:19 63.3 °F /  17.4 °C 60.1 °F /  15.6 °C 29.98in /  1015.1hPa SSW 0.6mph /  1km/h 3mph /  4.8km/h 89% 0.00in /  0mm 40 W/m2
07:24 63.3 °F /  17.4 °C 60.2 °F /  15.7 °C 29.98in /  1015.1hPa SSW 1mph /  1.6km/h 3mph /  4.8km/h 89.4% 0.00in /  0mm 35 W/m2
07:29 63.3 °F /  17.4 °C 60.1 °F /  15.6 °C 29.98in /  1015.1hPa South 2.2mph /  3.5km/h 5mph /  8km/h 89% 0.00in /  0mm 40 W/m2
07:34 63.3 °F /  17.4 °C 60.2 °F /  15.7 °C 29.98in /  1015.1hPa South 0.8mph /  1.3km/h 5mph /  8km/h 89.6% 0.00in /  0mm 56 W/m2
07:39 63.3 °F /  17.4 °C 60.3 °F /  15.7 °C 29.98in /  1015.1hPa South 0.8mph /  1.3km/h 3mph /  4.8km/h 90% 0.00in /  0mm 53 W/m2
07:44 63.3 °F /  17.4 °C 60.3 °F /  15.7 °C 29.98in /  1015.1hPa South 0.6mph /  1km/h 3mph /  4.8km/h 90% 0.00in /  0mm 47 W/m2
07:49 63.3 °F /  17.4 °C 60.3 °F /  15.7 °C 29.99in /  1015.5hPa Calm   2mph /  3.2km/h 90% 0.00in /  0mm 46 W/m2
07:54 63.3 °F /  17.4 °C 60.3 °F /  15.7 °C 29.99in /  1015.5hPa South 0.6mph /  1km/h 3mph /  4.8km/h 90% 0.00in /  0mm 62 W/m2
07:59 63.3 °F /  17.4 °C 60.3 °F /  15.7 °C 29.99in /  1015.5hPa South 0.4mph /  0.6km/h 2mph /  3.2km/h 90% 0.00in /  0mm 65 W/m2
08:04 63.4 °F /  17.4 °C 60.4 °F /  15.8 °C 29.99in /  1015.5hPa Calm   2mph /  3.2km/h 90.2% 0.00in /  0mm 54 W/m2
08:09 63.6 °F /  17.6 °C 60.9 °F /  16.1 °C 29.99in /  1015.5hPa Calm     91% 0.00in /  0mm 62 W/m2
08:14 63.5 °F /  17.5 °C 60.8 °F /  16 °C 29.99in /  1015.5hPa Calm     91% 0.00in /  0mm 69 W/m2
08:19 63.7 °F /  17.6 °C 61 °F /  16.1 °C 29.99in /  1015.5hPa Calm   1mph /  1.6km/h 91% 0.00in /  0mm 69 W/m2
08:24 63.8 °F /  17.7 °C 61.1 °F /  16.2 °C 29.99in /  1015.5hPa Calm     91% 0.00in /  0mm 72 W/m2
08:29 63.9 °F /  17.7 °C 61.2 °F /  16.2 °C 30.00in /  1015.8hPa Calm     91% 0.00in /  0mm 83 W/m2
08:34 64 °F /  17.8 °C 61.3 °F /  16.3 °C 30.00in /  1015.8hPa Calm     91% 0.00in /  0mm 93 W/m2
08:39 64 °F /  17.8 °C 61.3 °F /  16.3 °C 30.00in /  1015.8hPa Calm     91% 0.00in /  0mm 137 W/m2
08:43 64.2 °F /  17.9 °C 61.5 °F /  16.4 °C 30.00in /  1015.8hPa South 1mph /  1.6km/h 3mph /  4.8km/h 91% 0.00in /  0mm 109 W/m2
08:49 64.2 °F /  17.9 °C 61.5 °F /  16.4 °C 30.00in /  1015.8hPa South 0.2mph /  0.3km/h 2mph /  3.2km/h 91% 0.00in /  0mm 102 W/m2
08:54 64.3 °F /  17.9 °C 61.6 °F /  16.4 °C 30.00in /  1015.8hPa Calm   1mph /  1.6km/h 91% 0.00in /  0mm 139 W/m2
08:59 64.3 °F /  17.9 °C 61.6 °F /  16.4 °C 30.00in /  1015.8hPa South 0.6mph /  1km/h 2mph /  3.2km/h 91% 0.00in /  0mm 118 W/m2
09:04 64.5 °F /  18.1 °C 62 °F /  16.7 °C 30.00in /  1015.8hPa South 0.2mph /  0.3km/h 1mph /  1.6km/h 91.6% 0.00in /  0mm 90 W/m2
09:09 64.3 °F /  17.9 °C 61.6 °F /  16.4 °C 30.00in /  1015.8hPa South 0.5mph /  0.8km/h 3mph /  4.8km/h 91% 0.00in /  0mm 90 W/m2
09:14 64.4 °F /  18 °C 61.7 °F /  16.5 °C 30.00in /  1015.8hPa SSE 1.3mph /  2.1km/h 7mph /  11.3km/h 91% 0.00in /  0mm 76 W/m2
09:19 64.4 °F /  18 °C 61.7 °F /  16.5 °C 30.00in /  1015.8hPa South 3mph /  4.8km/h 7mph /  11.3km/h 91% 0.00in /  0mm 77 W/m2
09:24 64.6 °F /  18.1 °C 62.2 °F /  16.8 °C 30.01in /  1016.1hPa South 1mph /  1.6km/h 4mph /  6.4km/h 92% 0.00in /  0mm 69 W/m2
09:29 64.7 °F /  18.2 °C 62.3 °F /  16.8 °C 30.01in /  1016.1hPa SSE 2.5mph /  4km/h 4mph /  6.4km/h 92% 0.00in /  0mm 69 W/m2
09:34 64.8 °F /  18.2 °C 62.3 °F /  16.8 °C 30.01in /  1016.1hPa SSE 2.2mph /  3.5km/h 6mph /  9.7km/h 91.8% 0.00in /  0mm 86 W/m2
09:39 64.9 °F /  18.3 °C 62.2 °F /  16.8 °C 30.01in /  1016.1hPa SSE 3.6mph /  5.8km/h 6mph /  9.7km/h 91% 0.00in /  0mm 107 W/m2
09:44 64.9 °F /  18.3 °C 62.2 °F /  16.8 °C 30.00in /  1015.8hPa SSE 3.2mph /  5.1km/h 6mph /  9.7km/h 91% 0.00in /  0mm 142 W/m2
09:49 65 °F /  18.3 °C 62.3 °F /  16.8 °C 30.00in /  1015.8hPa SSE 3.1mph /  5km/h 5mph /  8km/h 91% 0.00in /  0mm 127 W/m2
09:54 65.1 °F /  18.4 °C 62.4 °F /  16.9 °C 30.01in /  1016.1hPa SE 1.8mph /  2.9km/h 6mph /  9.7km/h 91% 0.00in /  0mm 114 W/m2
09:59 65.3 °F /  18.5 °C 62.6 °F /  17 °C 30.01in /  1016.1hPa SSE 2.9mph /  4.7km/h 5mph /  8km/h 91% 0.00in /  0mm 109 W/m2
10:04 65.5 °F /  18.6 °C 62.8 °F /  17.1 °C 30.01in /  1016.1hPa South 2.8mph /  4.5km/h 7mph /  11.3km/h 91% 0.00in /  0mm 105 W/m2
10:08 65.7 °F /  18.7 °C 63 °F /  17.2 °C 30.01in /  1016.1hPa South 1.5mph /  2.4km/h 7mph /  11.3km/h 91% 0.00in /  0mm 105 W/m2
10:14 65.8 °F /  18.8 °C 63 °F /  17.2 °C 30.01in /  1016.1hPa South 3.1mph /  5km/h 6mph /  9.7km/h 90.6% 0.00in /  0mm 121 W/m2
10:19 66 °F /  18.9 °C 63 °F /  17.2 °C 30.01in /  1016.1hPa South 2.8mph /  4.5km/h 7mph /  11.3km/h 90% 0.00in /  0mm 118 W/m2
10:24 66.4 °F /  19.1 °C 63.3 °F /  17.4 °C 30.01in /  1016.1hPa South 1.3mph /  2.1km/h 4mph /  6.4km/h 90% 0.00in /  0mm 127 W/m2
10:29 66.4 °F /  19.1 °C 63.3 °F /  17.4 °C 30.01in /  1016.1hPa SSW 3.9mph /  6.3km/h 7mph /  11.3km/h 90% 0.00in /  0mm 125 W/m2
10:34 66.6 °F /  19.2 °C 63.5 °F /  17.5 °C 30.01in /  1016.1hPa SW 2.7mph /  4.3km/h 7mph /  11.3km/h 90% 0.00in /  0mm 104 W/m2
10:39 66.6 °F /  19.2 °C 63.6 °F /  17.6 °C 30.01in /  1016.1hPa South 2.8mph /  4.5km/h 7mph /  11.3km/h 90% 0.00in /  0mm 137 W/m2
10:44 66.7 °F /  19.3 °C 63.6 °F /  17.6 °C 30.01in /  1016.1hPa SSE 4mph /  6.4km/h 8mph /  12.9km/h 90% 0.00in /  0mm 176 W/m2
10:49 66.6 °F /  19.2 °C 63.5 °F /  17.5 °C 30.01in /  1016.1hPa South 3.3mph /  5.3km/h 8mph /  12.9km/h 90% 0.00in /  0mm 265 W/m2
10:54 66.7 °F /  19.3 °C 63.7 °F /  17.6 °C 30.01in /  1016.1hPa SSE 2.4mph /  3.9km/h 5mph /  8km/h 90.4% 0.00in /  0mm 279 W/m2
10:58 66.7 °F /  19.3 °C 64 °F /  17.8 °C 30.01in /  1016.1hPa SSE 3.2mph /  5.1km/h 5mph /  8km/h 91% 0.00in /  0mm 244 W/m2
11:04 66.9 °F /  19.4 °C 64.2 °F /  17.9 °C 30.01in /  1016.1hPa South 2mph /  3.2km/h 8mph /  12.9km/h 91% 0.00in /  0mm 295 W/m2
11:09 67.2 °F /  19.6 °C 64.5 °F /  18.1 °C 30.01in /  1016.1hPa SSE 6.2mph /  10km/h 12mph /  19.3km/h 91% 0.00in /  0mm 570 W/m2
11:14 67.4 °F /  19.7 °C 64.7 °F /  18.2 °C 30.01in /  1016.1hPa SSE 5.3mph /  8.5km/h 10mph /  16.1km/h 91% 0.00in /  0mm 570 W/m2
11:19 67.6 °F /  19.8 °C 64.7 °F /  18.2 °C 30.01in /  1016.1hPa South 4.5mph /  7.2km/h 12mph /  19.3km/h 90.4% 0.00in /  0mm 380 W/m2
11:24 67.9 °F /  19.9 °C 64.9 °F /  18.3 °C 30.01in /  1016.1hPa South 5.8mph /  9.3km/h 12mph /  19.3km/h 90% 0.00in /  0mm 338 W/m2
11:29 68.4 °F /  20.2 °C 65 °F /  18.3 °C 30.01in /  1016.1hPa SSE 3mph /  4.8km/h 9mph /  14.5km/h 89.2% 0.00in /  0mm 313 W/m2
11:34 68.4 °F /  20.2 °C 64.8 °F /  18.2 °C 30.01in /  1016.1hPa SSE 8.2mph /  13.2km/h 12mph /  19.3km/h 88.4% 0.01in /  0.25mm 237 W/m2
11:39 68.2 °F /  20.1 °C 64.4 °F /  18 °C 30.01in /  1016.1hPa SSE 5.3mph /  8.5km/h 11mph /  17.7km/h 88% 0.01in /  0.25mm 250 W/m2
11:44 68.3 °F /  20.2 °C 64.5 °F /  18.1 °C 30.01in /  1016.1hPa South 4.1mph /  6.6km/h 8mph /  12.9km/h 88% 0.01in /  0.25mm 281 W/m2
11:49 68.3 °F /  20.2 °C 64.7 °F /  18.2 °C 30.01in /  1016.1hPa South 5.2mph /  8.4km/h 8mph /  12.9km/h 88.5% 0.01in /  0.25mm 271 W/m2
11:54 68.4 °F /  20.2 °C 64.9 °F /  18.3 °C 30.01in /  1016.1hPa SSE 4.7mph /  7.6km/h 9mph /  14.5km/h 89% 0.01in /  0.25mm 287 W/m2
11:59 68.2 °F /  20.1 °C 64.8 °F /  18.2 °C 30.01in /  1016.1hPa South 5.2mph /  8.4km/h 9mph /  14.5km/h 89% 0.01in /  0.25mm 248 W/m2
12:04 68.2 °F /  20.1 °C 64.8 °F /  18.2 °C 30.01in /  1016.1hPa South 6.2mph /  10km/h 13mph /  20.9km/h 89% 0.01in /  0.25mm 367 W/m2
12:09 68.2 °F /  20.1 °C 64.8 °F /  18.2 °C 30.01in /  1016.1hPa South 5.6mph /  9km/h 13mph /  20.9km/h 89.2% 0.01in /  0.25mm 853 W/m2
12:14 68.5 °F /  20.3 °C 65.3 °F /  18.5 °C 30.01in /  1016.1hPa South 4.9mph /  7.9km/h 9mph /  14.5km/h 89.6% 0.01in /  0.25mm 946 W/m2
12:19 69.2 °F /  20.7 °C 66.1 °F /  18.9 °C 30.01in /  1016.1hPa South 3.7mph /  6km/h 8mph /  12.9km/h 90% 0.01in /  0.25mm 889 W/m2
12:24 69.4 °F /  20.8 °C 65.9 °F /  18.8 °C 30.02in /  1016.5hPa South 6.5mph /  10.5km/h 12mph /  19.3km/h 89% 0.01in /  0.25mm 613 W/m2
12:29 69.3 °F /  20.7 °C 65.7 °F /  18.7 °C 30.02in /  1016.5hPa South 4.9mph /  7.9km/h 13mph /  20.9km/h 88.4% 0.01in /  0.25mm 686 W/m2
12:34 69.6 °F /  20.9 °C 65.8 °F /  18.8 °C 30.02in /  1016.5hPa South 7.5mph /  12.1km/h 12mph /  19.3km/h 87.8% 0.01in /  0.25mm 686 W/m2
12:39 69.8 °F /  21 °C 65.9 °F /  18.8 °C 30.02in /  1016.5hPa South 4.1mph /  6.6km/h 12mph /  19.3km/h 87.2% 0.00in /  0mm 622 W/m2
12:44 69.5 °F /  20.8 °C 65.7 °F /  18.7 °C 30.02in /  1016.5hPa South 6.4mph /  10.3km/h 11mph /  17.7km/h 87.3% 0.00in /  0mm 406 W/m2
12:49 69.3 °F /  20.7 °C 65.5 °F /  18.6 °C 30.02in /  1016.5hPa South 4mph /  6.4km/h 11mph /  17.7km/h 87.8% 0.00in /  0mm 429 W/m2
12:54 69.5 °F /  20.8 °C 65.7 °F /  18.7 °C 30.02in /  1016.5hPa South 4.9mph /  7.9km/h 10mph /  16.1km/h 87.8% 0.00in /  0mm 504 W/m2
12:59 69.6 °F /  20.9 °C 65.7 °F /  18.7 °C 30.02in /  1016.5hPa SSW 5.3mph /  8.5km/h 10mph /  16.1km/h 87% 0.00in /  0mm 330 W/m2
13:04 69.4 °F /  20.8 °C 65.5 °F /  18.6 °C 30.02in /  1016.5hPa SSW 6.6mph /  10.6km/h 10mph /  16.1km/h 87% 0.00in /  0mm 374 W/m2
13:09 69.7 °F /  20.9 °C 65.7 °F /  18.7 °C 30.02in /  1016.5hPa South 4.1mph /  6.6km/h 11mph /  17.7km/h 86.8% 0.00in /  0mm 387 W/m2
13:14 69.9 °F /  21.1 °C 65.6 °F /  18.7 °C 30.02in /  1016.5hPa South 4.2mph /  6.8km/h 11mph /  17.7km/h 86% 0.00in /  0mm 378 W/m2
13:19 70.1 °F /  21.2 °C 65.8 °F /  18.8 °C 30.02in /  1016.5hPa South 4.7mph /  7.6km/h 11mph /  17.7km/h 86% 0.00in /  0mm 371 W/m2
13:24 70.2 °F /  21.2 °C 65.6 °F /  18.7 °C 30.02in /  1016.5hPa South 5.2mph /  8.4km/h 11mph /  17.7km/h 85.2% 0.00in /  0mm 272 W/m2
13:29 70.3 °F /  21.3 °C 65.7 °F /  18.7 °C 30.02in /  1016.5hPa South 4.1mph /  6.6km/h 11mph /  17.7km/h 85% 0.00in /  0mm 272 W/m2
13:34 70.5 °F /  21.4 °C 65.8 °F /  18.8 °C 30.02in /  1016.5hPa South 5.9mph /  9.5km/h 13mph /  20.9km/h 85% 0.00in /  0mm 322 W/m2
13:39 70.3 °F /  21.3 °C 65.3 °F /  18.5 °C 30.02in /  1016.5hPa South 5.7mph /  9.2km/h 14mph /  22.5km/h 84.2% 0.00in /  0mm 232 W/m2
13:44 70.3 °F /  21.3 °C 65.5 °F /  18.6 °C 30.02in /  1016.5hPa South 4.5mph /  7.2km/h 14mph /  22.5km/h 84.8% 0.00in /  0mm 197 W/m2
13:49 70.4 °F /  21.3 °C 65.8 °F /  18.8 °C 30.02in /  1016.5hPa SSW 2.5mph /  4km/h 9mph /  14.5km/h 85% 0.00in /  0mm 237 W/m2
13:54 70.5 °F /  21.4 °C 65.5 °F /  18.6 °C 30.02in /  1016.5hPa SSW 5.7mph /  9.2km/h 11mph /  17.7km/h 84% 0.00in /  0mm 304 W/m2
13:59 70.3 °F /  21.3 °C 65.3 °F /  18.5 °C 30.02in /  1016.5hPa SSW 3.5mph /  5.6km/h 7mph /  11.3km/h 84% 0.00in /  0mm 262 W/m2
14:04 70.3 °F /  21.3 °C 65.3 °F /  18.5 °C 30.02in /  1016.5hPa South 5.8mph /  9.3km/h 10mph /  16.1km/h 84% 0.00in /  0mm 287 W/m2
14:09 70.3 °F /  21.3 °C 65.7 °F /  18.7 °C 30.02in /  1016.5hPa South 5.2mph /  8.4km/h 10mph /  16.1km/h 85% 0.00in /  0mm 626 W/m2
14:14 70.7 °F /  21.5 °C 65.9 °F /  18.8 °C 30.03in /  1016.8hPa WSW 7mph /  11.3km/h 9mph /  14.5km/h 84.6% 0.00in /  0mm 568 W/m2
14:19 71 °F /  21.7 °C 66 °F /  18.9 °C 30.02in /  1016.5hPa SSW 3.5mph /  5.6km/h 10mph /  16.1km/h 84% 0.00in /  0mm 295 W/m2
14:24 70.7 °F /  21.5 °C 65.6 °F /  18.7 °C 30.02in /  1016.5hPa South 7.4mph /  11.9km/h 11mph /  17.7km/h 83.8% 0.00in /  0mm 392 W/m2
14:29 70.4 °F /  21.3 °C 65.4 °F /  18.6 °C 30.02in /  1016.5hPa South 6.7mph /  10.8km/h 10mph /  16.1km/h 84% 0.00in /  0mm 371 W/m2
14:34 70.7 °F /  21.5 °C 65.7 °F /  18.7 °C 30.02in /  1016.5hPa South 4.8mph /  7.7km/h 10mph /  16.1km/h 84% 0.00in /  0mm 272 W/m2
14:38 70.8 °F /  21.6 °C 65.8 °F /  18.8 °C 30.02in /  1016.5hPa South 6.2mph /  10km/h 10mph /  16.1km/h 84% 0.00in /  0mm 262 W/m2
14:44 70.8 °F /  21.6 °C 65.7 °F /  18.7 °C 30.02in /  1016.5hPa South 5.3mph /  8.5km/h 10mph /  16.1km/h 84% 0.00in /  0mm 232 W/m2
14:49 70.8 °F /  21.6 °C 65.7 °F /  18.7 °C 30.02in /  1016.5hPa South 5.6mph /  9km/h 12mph /  19.3km/h 83.8% 0.00in /  0mm 274 W/m2
14:54 71 °F /  21.7 °C 65.9 °F /  18.8 °C 30.03in /  1016.8hPa SSW 3.8mph /  6.1km/h 12mph /  19.3km/h 84% 0.00in /  0mm 478 W/m2
14:59 71.2 °F /  21.8 °C 65.8 °F /  18.8 °C 30.03in /  1016.8hPa SSW 4.8mph /  7.7km/h 12mph /  19.3km/h 83% 0.00in /  0mm 429 W/m2
15:04 71.1 °F /  21.7 °C 65.3 °F /  18.5 °C 30.03in /  1016.8hPa SSW 5.6mph /  9km/h 11mph /  17.7km/h 82% 0.00in /  0mm 403 W/m2
15:09 71.5 °F /  21.9 °C 66.1 °F /  18.9 °C 30.03in /  1016.8hPa SSW 3.7mph /  6km/h 11mph /  17.7km/h 82.8% 0.00in /  0mm 476 W/m2
15:14 72.1 °F /  22.3 °C 66.1 °F /  18.9 °C 30.03in /  1016.8hPa SSW 7.3mph /  11.7km/h 13mph /  20.9km/h 81.4% 0.00in /  0mm 283 W/m2
15:18 71.3 °F /  21.8 °C 65.3 °F /  18.5 °C 30.03in /  1016.8hPa South 6.3mph /  10.1km/h 10mph /  16.1km/h 81.3% 0.00in /  0mm 232 W/m2
15:24 71.3 °F /  21.8 °C 65.6 °F /  18.7 °C 30.03in /  1016.8hPa SSE 4.5mph /  7.2km/h 12mph /  19.3km/h 82% 0.00in /  0mm 357 W/m2
15:29 71.3 °F /  21.8 °C 65.6 °F /  18.7 °C 30.03in /  1016.8hPa SSE 5.3mph /  8.5km/h 12mph /  19.3km/h 82% 0.00in /  0mm 374 W/m2
15:34 71.4 °F /  21.9 °C 65.7 °F /  18.7 °C 30.03in /  1016.8hPa South 4.7mph /  7.6km/h 9mph /  14.5km/h 82% 0.00in /  0mm 272 W/m2
15:39 71.5 °F /  21.9 °C 65.7 °F /  18.7 °C 30.03in /  1016.8hPa South 5.3mph /  8.5km/h 12mph /  19.3km/h 82% 0.00in /  0mm 329 W/m2
15:44 71.9 °F /  22.2 °C 65.9 °F /  18.8 °C 30.03in /  1016.8hPa South 4.8mph /  7.7km/h 12mph /  19.3km/h 81.4% 0.00in /  0mm 438 W/m2
15:49 72.1 °F /  22.3 °C 65.8 °F /  18.8 °C 30.03in /  1016.8hPa SE 4.9mph /  7.9km/h 9mph /  14.5km/h 80.4% 0.00in /  0mm 329 W/m2
15:54 72.2 °F /  22.3 °C 65.8 °F /  18.8 °C 30.03in /  1016.8hPa South 5.3mph /  8.5km/h 10mph /  16.1km/h 80% 0.00in /  0mm 323 W/m2
15:59 72.3 °F /  22.4 °C 65.5 °F /  18.6 °C 30.03in /  1016.8hPa South 4.3mph /  6.9km/h 11mph /  17.7km/h 79% 0.00in /  0mm 517 W/m2
16:04 72.5 °F /  22.5 °C 65.4 °F /  18.6 °C 30.03in /  1016.8hPa South 5.4mph /  8.7km/h 15mph /  24.1km/h 78.2% 0.00in /  0mm 406 W/m2
16:09 72.9 °F /  22.7 °C 65.2 °F /  18.4 °C 30.03in /  1016.8hPa South 9mph /  14.5km/h 14mph /  22.5km/h 76.6% 0.00in /  0mm 343 W/m2
16:14 72.8 °F /  22.7 °C 65 °F /  18.3 °C 30.03in /  1016.8hPa South 4.5mph /  7.2km/h 10mph /  16.1km/h 76.5% 0.00in /  0mm 290 W/m2
16:19 73 °F /  22.8 °C 65.5 °F /  18.6 °C 30.02in /  1016.5hPa SSW 4.8mph /  7.7km/h 10mph /  16.1km/h 77% 0.00in /  0mm 323 W/m2
16:24 73.4 °F /  23 °C 65.3 °F /  18.5 °C 30.03in /  1016.8hPa SSW 4.8mph /  7.7km/h 10mph /  16.1km/h 76% 0.00in /  0mm 311 W/m2
16:29 73.5 °F /  23.1 °C 65.1 °F /  18.4 °C 30.03in /  1016.8hPa South 7.2mph /  11.6km/h 12mph /  19.3km/h 75.2% 0.00in /  0mm 367 W/m2
16:34 73.7 °F /  23.2 °C 65.1 °F /  18.4 °C 30.02in /  1016.5hPa SSW 5.8mph /  9.3km/h 14mph /  22.5km/h 74.6% 0.00in /  0mm 392 W/m2
16:39 73.8 °F /  23.2 °C 64.9 °F /  18.3 °C 30.02in /  1016.5hPa South 4.5mph /  7.2km/h 13mph /  20.9km/h 74% 0.00in /  0mm 396 W/m2
16:43 73.7 °F /  23.2 °C 64.8 °F /  18.2 °C 30.03in /  1016.8hPa South 6.2mph /  10km/h 15mph /  24.1km/h 74% 0.00in /  0mm 325 W/m2
16:49 73.5 °F /  23.1 °C 64.7 °F /  18.2 °C 30.03in /  1016.8hPa SSW 5.3mph /  8.5km/h 12mph /  19.3km/h 74% 0.00in /  0mm 297 W/m2
16:54 73.7 °F /  23.2 °C 65 °F /  18.3 °C 30.02in /  1016.5hPa SW 5.3mph /  8.5km/h 10mph /  16.1km/h 74.4% 0.00in /  0mm 334 W/m2
16:59 73.6 °F /  23.1 °C 64.8 °F /  18.2 °C 30.02in /  1016.5hPa SSW 5.9mph /  9.5km/h 11mph /  17.7km/h 74% 0.00in /  0mm 279 W/m2
17:04 73.5 °F /  23.1 °C 64.7 °F /  18.2 °C 30.02in /  1016.5hPa SSW 4.9mph /  7.9km/h 10mph /  16.1km/h 74% 0.00in /  0mm 258 W/m2
17:09 73.6 °F /  23.1 °C 64.8 °F /  18.2 °C 30.02in /  1016.5hPa SSW 5mph /  8km/h 9mph /  14.5km/h 74% 0.00in /  0mm 223 W/m2
17:14 73.6 °F /  23.1 °C 64.8 °F /  18.2 °C 30.02in /  1016.5hPa South 6.2mph /  10km/h 11mph /  17.7km/h 74% 0.00in /  0mm 213 W/m2
17:19 73.6 °F /  23.1 °C 64.8 °F /  18.2 °C 30.02in /  1016.5hPa SW 3.9mph /  6.3km/h 11mph /  17.7km/h 74% 0.00in /  0mm 195 W/m2
17:24 73.7 °F /  23.2 °C 64.8 °F /  18.2 °C 30.02in /  1016.5hPa South 4.8mph /  7.7km/h 10mph /  16.1km/h 74% 0.00in /  0mm 206 W/m2
17:29 73.7 °F /  23.2 °C 64.9 °F /  18.3 °C 30.02in /  1016.5hPa SSW 3.4mph /  5.5km/h 9mph /  14.5km/h 74% 0.00in /  0mm 302 W/m2
17:34 74.1 °F /  23.4 °C 64.9 °F /  18.3 °C 30.01in /  1016.1hPa SSW 3mph /  4.8km/h 9mph /  14.5km/h 73% 0.00in /  0mm 287 W/m2
17:39 74.1 °F /  23.4 °C 64.8 °F /  18.2 °C 30.01in /  1016.1hPa SSW 4.3mph /  6.9km/h 9mph /  14.5km/h 72.6% 0.00in /  0mm 221 W/m2
17:44 74.1 °F /  23.4 °C 64.8 °F /  18.2 °C 30.02in /  1016.5hPa SSW 4.7mph /  7.6km/h 10mph /  16.1km/h 72.8% 0.00in /  0mm 186 W/m2
17:49 73.8 °F /  23.2 °C 64.7 °F /  18.2 °C 30.02in /  1016.5hPa SSW 3.7mph /  6km/h 10mph /  16.1km/h 73% 0.00in /  0mm 223 W/m2
17:54 73.8 °F /  23.2 °C 64.6 °F /  18.1 °C 30.02in /  1016.5hPa SSW 4.7mph /  7.6km/h 9mph /  14.5km/h 72.8% 0.00in /  0mm 234 W/m2
17:59 73.7 °F /  23.2 °C 64.5 °F /  18.1 °C 30.02in /  1016.5hPa South 6.1mph /  9.8km/h 13mph /  20.9km/h 73% 0.00in /  0mm 221 W/m2
18:04 73.5 °F /  23.1 °C 64.4 °F /  18 °C 30.02in /  1016.5hPa South 5.7mph /  9.2km/h 10mph /  16.1km/h 73.2% 0.00in /  0mm 206 W/m2
18:09 73.5 °F /  23.1 °C 64.6 °F /  18.1 °C 30.02in /  1016.5hPa SSW 3.2mph /  5.1km/h 10mph /  16.1km/h 73.6% 0.00in /  0mm 200 W/m2
18:14 73.7 °F /  23.2 °C 64.6 °F /  18.1 °C 30.02in /  1016.5hPa South 5.7mph /  9.2km/h 13mph /  20.9km/h 73.3% 0.00in /  0mm 345 W/m2
18:19 73.6 °F /  23.1 °C 64.5 °F /  18.1 °C 30.02in /  1016.5hPa SSW 4.4mph /  7.1km/h 13mph /  20.9km/h 73.2% 0.00in /  0mm 359 W/m2
18:24 73.8 °F /  23.2 °C 64.7 °F /  18.2 °C 30.01in /  1016.1hPa South 3.5mph /  5.6km/h 8mph /  12.9km/h 73.2% 0.00in /  0mm 490 W/m2
18:29 74 °F /  23.3 °C 64.7 °F /  18.2 °C 30.01in /  1016.1hPa South 6.5mph /  10.5km/h 11mph /  17.7km/h 72.6% 0.00in /  0mm 401 W/m2
18:34 74.3 °F /  23.5 °C 65.1 °F /  18.4 °C 30.01in /  1016.1hPa SSW 1.8mph /  2.9km/h 6mph /  9.7km/h 73% 0.00in /  0mm 315 W/m2
18:39 74.3 °F /  23.5 °C 64.4 °F /  18 °C 30.02in /  1016.5hPa WSW 5.9mph /  9.5km/h 9mph /  14.5km/h 71.4% 0.00in /  0mm 141 W/m2
18:44 73.9 °F /  23.3 °C 64.1 °F /  17.8 °C 30.02in /  1016.5hPa SW 4.4mph /  7.1km/h 7mph /  11.3km/h 71.6% 0.00in /  0mm 156 W/m2
18:49 73.8 °F /  23.2 °C 64.2 °F /  17.9 °C 30.02in /  1016.5hPa SSW 3.6mph /  5.8km/h 9mph /  14.5km/h 72% 0.00in /  0mm 213 W/m2
18:54 73.8 °F /  23.2 °C 64.6 °F /  18.1 °C 30.02in /  1016.5hPa SW 3.7mph /  6km/h 7mph /  11.3km/h 72.8% 0.00in /  0mm 264 W/m2
18:59 73.8 °F /  23.2 °C 64.6 °F /  18.1 °C 30.02in /  1016.5hPa SSW 2.7mph /  4.3km/h 7mph /  11.3km/h 73% 0.00in /  0mm 163 W/m2
19:04 73.7 °F /  23.2 °C 64.4 °F /  18 °C 30.02in /  1016.5hPa South 6.2mph /  10km/h 12mph /  19.3km/h 72.8% 0.00in /  0mm 287 W/m2
19:09 73.8 °F /  23.2 °C 64.2 °F /  17.9 °C 30.02in /  1016.5hPa SSW 2.3mph /  3.7km/h 8mph /  12.9km/h 72% 0.00in /  0mm 239 W/m2
19:14 73.8 °F /  23.2 °C 63.9 °F /  17.7 °C 30.02in /  1016.5hPa South 3.1mph /  5km/h 9mph /  14.5km/h 71.4% 0.00in /  0mm 213 W/m2
19:19 73.7 °F /  23.2 °C 63.7 °F /  17.6 °C 30.03in /  1016.8hPa SSW 5.6mph /  9km/h 10mph /  16.1km/h 71% 0.00in /  0mm 192 W/m2
19:24 73.1 °F /  22.8 °C 63.3 °F /  17.4 °C 30.03in /  1016.8hPa WSW 3.7mph /  6km/h 10mph /  16.1km/h 71.4% 0.00in /  0mm 44 W/m2
19:29 72.9 °F /  22.7 °C 63.3 °F /  17.4 °C 30.03in /  1016.8hPa SW 3.2mph /  5.1km/h 7mph /  11.3km/h 72% 0.00in /  0mm 42 W/m2
19:34 72.7 °F /  22.6 °C 63.4 °F /  17.4 °C 30.03in /  1016.8hPa West 3.2mph /  5.1km/h 9mph /  14.5km/h 72.8% 0.00in /  0mm 49 W/m2
19:39 72.7 °F /  22.6 °C 63.5 °F /  17.5 °C 30.03in /  1016.8hPa WSW 2.2mph /  3.5km/h 9mph /  14.5km/h 73% 0.00in /  0mm 98 W/m2
19:44 72.9 °F /  22.7 °C 63.5 °F /  17.5 °C 30.03in /  1016.8hPa West 2.9mph /  4.7km/h 7mph /  11.3km/h 72.6% 0.00in /  0mm 100 W/m2
19:49 73 °F /  22.8 °C 63.5 °F /  17.5 °C 30.03in /  1016.8hPa SW 1.7mph /  2.7km/h 5mph /  8km/h 72% 0.00in /  0mm 91 W/m2
19:54 72.9 °F /  22.7 °C 63.5 °F /  17.5 °C 30.03in /  1016.8hPa SW 3.3mph /  5.3km/h 8mph /  12.9km/h 72.4% 0.00in /  0mm 93 W/m2
19:59 72.9 °F /  22.7 °C 63.7 °F /  17.6 °C 30.03in /  1016.8hPa SW 1.5mph /  2.4km/h 4mph /  6.4km/h 73% 0.00in /  0mm 40 W/m2
20:04 72.7 °F /  22.6 °C 63.5 °F /  17.5 °C 30.03in /  1016.8hPa WSW 3.2mph /  5.1km/h 5mph /  8km/h 73% 0.00in /  0mm 42 W/m2
20:09 72.3 °F /  22.4 °C 63.2 °F /  17.3 °C 30.03in /  1016.8hPa West 4mph /  6.4km/h 7mph /  11.3km/h 73.2% 0.00in /  0mm 32 W/m2
20:14 72 °F /  22.2 °C 63.1 °F /  17.3 °C 30.03in /  1016.8hPa West 2.3mph /  3.7km/h 6mph /  9.7km/h 74% 0.00in /  0mm 21 W/m2
20:19 71.5 °F /  21.9 °C 63 °F /  17.2 °C 30.03in /  1016.8hPa West 4.1mph /  6.6km/h 7mph /  11.3km/h 74.6% 0.00in /  0mm 16 W/m2
20:24 71.2 °F /  21.8 °C 62.9 °F /  17.2 °C 30.03in /  1016.8hPa West 3.6mph /  5.8km/h 6mph /  9.7km/h 75% 0.00in /  0mm 14 W/m2
20:29 70.9 °F /  21.6 °C 62.7 °F /  17.1 °C 30.03in /  1016.8hPa West 4.6mph /  7.4km/h 6mph /  9.7km/h 75.2% 0.00in /  0mm 12 W/m2
20:34 70.5 °F /  21.4 °C 62.6 °F /  17 °C 30.03in /  1016.8hPa West 3.6mph /  5.8km/h 6mph /  9.7km/h 76% 0.00in /  0mm 11 W/m2
20:39 70.3 °F /  21.3 °C 62.4 °F /  16.9 °C 30.03in /  1016.8hPa West 4.4mph /  7.1km/h 7mph /  11.3km/h 76% 0.00in /  0mm 9 W/m2
20:44 70.2 °F /  21.2 °C 62.5 °F /  16.9 °C 30.03in /  1016.8hPa West 4.1mph /  6.6km/h 7mph /  11.3km/h 76.8% 0.00in /  0mm 5 W/m2
20:48 70 °F /  21.1 °C 62.4 °F /  16.9 °C 30.03in /  1016.8hPa West 3.2mph /  5.1km/h 6mph /  9.7km/h 77% 0.00in /  0mm 0 W/m2
20:54 69.7 °F /  20.9 °C 62.2 °F /  16.8 °C 30.03in /  1016.8hPa West 2.4mph /  3.9km/h 6mph /  9.7km/h 77% 0.00in /  0mm 0 W/m2
20:59 69.5 °F /  20.8 °C 62.2 °F /  16.8 °C 30.04in /  1017.2hPa West 2.4mph /  3.9km/h 4mph /  6.4km/h 77.6% 0.00in /  0mm 0 W/m2
21:04 69.3 °F /  20.7 °C 62.1 °F /  16.7 °C 30.03in /  1016.8hPa West 2mph /  3.2km/h 4mph /  6.4km/h 78% 0.00in /  0mm 0 W/m2
21:09 69.1 °F /  20.6 °C 62 °F /  16.7 °C 30.04in /  1017.2hPa West 1.8mph /  2.9km/h 4mph /  6.4km/h 78.2% 0.00in /  0mm 0 W/m2
21:14 69 °F /  20.6 °C 62.1 °F /  16.7 °C 30.04in /  1017.2hPa West 0.4mph /  0.6km/h 2mph /  3.2km/h 79% 0.00in /  0mm 0 W/m2
21:19 68.7 °F /  20.4 °C 61.9 °F /  16.6 °C 30.04in /  1017.2hPa West 0.9mph /  1.4km/h 3mph /  4.8km/h 79% 0.00in /  0mm 0 W/m2
21:24 68.5 °F /  20.3 °C 61.8 °F /  16.6 °C 30.04in /  1017.2hPa West 0.5mph /  0.8km/h 3mph /  4.8km/h 79.2% 0.00in /  0mm 0 W/m2
21:29 68.3 °F /  20.2 °C 61.8 °F /  16.6 °C 30.04in /  1017.2hPa West 0.2mph /  0.3km/h 2mph /  3.2km/h 80% 0.00in /  0mm 0 W/m2
21:34 68.2 °F /  20.1 °C 61.7 °F /  16.5 °C 30.04in /  1017.2hPa Calm     80% 0.00in /  0mm 0 W/m2
21:39 68 °F /  20 °C 61.8 °F /  16.6 °C 30.04in /  1017.2hPa Calm     80.8% 0.00in /  0mm 0 W/m2
21:44 67.6 °F /  19.8 °C 61.5 °F /  16.4 °C 30.04in /  1017.2hPa West 1.6mph /  2.6km/h 3mph /  4.8km/h 81% 0.00in /  0mm 0 W/m2
21:49 67.6 °F /  19.8 °C 61.7 °F /  16.5 °C 30.04in /  1017.2hPa Calm   3mph /  4.8km/h 81.6% 0.00in /  0mm 0 W/m2
21:54 67.5 °F /  19.7 °C 61.7 °F /  16.5 °C 30.04in /  1017.2hPa Calm     82% 0.00in /  0mm 0 W/m2
21:59 67.4 °F /  19.7 °C 61.6 °F /  16.4 °C 30.05in /  1017.5hPa Calm     82% 0.00in /  0mm 0 W/m2
22:04 66.9 °F /  19.4 °C 61.3 °F /  16.3 °C 30.05in /  1017.5hPa Calm     82.2% 0.00in /  0mm 0 W/m2
22:09 66.7 °F /  19.3 °C 61.3 °F /  16.3 °C 30.05in /  1017.5hPa Calm     83% 0.00in /  0mm 0 W/m2
22:14 66.6 °F /  19.2 °C 61.2 °F /  16.2 °C 30.05in /  1017.5hPa Calm     83% 0.00in /  0mm 0 W/m2
22:19 66.5 °F /  19.2 °C 61.1 °F /  16.2 °C 30.05in /  1017.5hPa Calm     83% 0.00in /  0mm 0 W/m2
22:24 66.4 °F /  19.1 °C 61.1 °F /  16.2 °C 30.05in /  1017.5hPa Calm     83.2% 0.00in /  0mm 0 W/m2
22:29 66.3 °F /  19.1 °C 61.3 °F /  16.3 °C 30.05in /  1017.5hPa Calm     84% 0.00in /  0mm 0 W/m2
22:34 66 °F /  18.9 °C 61 °F /  16.1 °C 30.05in /  1017.5hPa Calm     84% 0.00in /  0mm 0 W/m2
22:39 65.8 °F /  18.8 °C 60.8 °F /  16 °C 30.05in /  1017.5hPa Calm     84% 0.00in /  0mm 0 W/m2
22:44 65.7 °F /  18.7 °C 60.6 °F /  15.9 °C 30.05in /  1017.5hPa Calm     84% 0.00in /  0mm 0 W/m2
22:49 65.5 °F /  18.6 °C 60.6 °F /  15.9 °C 30.05in /  1017.5hPa Calm     84.4% 0.00in /  0mm 0 W/m2
22:54 65.1 °F /  18.4 °C 60.4 °F /  15.8 °C 30.05in /  1017.5hPa Calm     85% 0.00in /  0mm 0 W/m2
22:59 64.9 °F /  18.3 °C 60.3 °F /  15.7 °C 30.05in /  1017.5hPa Calm     85% 0.00in /  0mm 0 W/m2
23:03 64.8 °F /  18.2 °C 60.1 °F /  15.6 °C 30.05in /  1017.5hPa Calm     85% 0.00in /  0mm 0 W/m2
23:09 64.7 °F /  18.2 °C 60.4 °F /  15.8 °C 30.05in /  1017.5hPa Calm     86% 0.00in /  0mm 0 W/m2
23:14 64.6 °F /  18.1 °C 60.3 °F /  15.7 °C 30.06in /  1017.8hPa Calm     86% 0.00in /  0mm 0 W/m2
23:19 64.4 °F /  18 °C 60.1 °F /  15.6 °C 30.06in /  1017.8hPa Calm     86% 0.00in /  0mm 0 W/m2
23:24 64.2 °F /  17.9 °C 59.9 °F /  15.5 °C 30.06in /  1017.8hPa Calm     86% 0.00in /  0mm 0 W/m2
23:29 64 °F /  17.8 °C 59.7 °F /  15.4 °C 30.05in /  1017.5hPa Calm     86% 0.00in /  0mm 0 W/m2
23:33 64 °F /  17.8 °C 60.1 °F /  15.6 °C 30.06in /  1017.8hPa Calm     87% 0.00in /  0mm 0 W/m2
23:39 63.9 °F /  17.7 °C 59.9 °F /  15.5 °C 30.06in /  1017.8hPa Calm     87% 0.00in /  0mm 0 W/m2
23:44 63.8 °F /  17.7 °C 59.8 °F /  15.4 °C 30.06in /  1017.8hPa Calm     87% 0.00in /  0mm 0 W/m2
23:49 63.6 °F /  17.6 °C 59.6 °F /  15.3 °C 30.06in /  1017.8hPa Calm     87% 0.00in /  0mm 0 W/m2
23:54 63.3 °F /  17.4 °C 59.4 °F /  15.2 °C 30.06in /  1017.8hPa Calm     87% 0.00in /  0mm 0 W/m2
23:59 63.3 °F /  17.4 °C 59.6 °F /  15.3 °C 30.06in /  1017.8hPa Calm     87.8% 0.00in /  0mm 0 W/m2
Bath Spa Weather
Compliments of Weather Underground - 2 mb